sensor_id;sensor_type;location;lat;lon;timestamp;pressure;altitude;pressure_sealevel;temperature;humidity
72395;BME280;60384;48.152;11.614;2023-06-22T00:01:11;95756.91;;;23.02;50.04
72395;BME280;60384;48.152;11.614;2023-06-22T00:04:14;95748.38;;;23.00;50.32
72395;BME280;60384;48.152;11.614;2023-06-22T00:07:16;95745.63;;;22.97;50.49
72395;BME280;60384;48.152;11.614;2023-06-22T00:10:17;95736.72;;;22.79;50.30
72395;BME280;60384;48.152;11.614;2023-06-22T00:13:19;95736.34;;;22.70;50.51
72395;BME280;60384;48.152;11.614;2023-06-22T00:16:21;95748.41;;;22.61;50.97
72395;BME280;60384;48.152;11.614;2023-06-22T00:19:24;95750.00;;;22.55;50.73
72395;BME280;60384;48.152;11.614;2023-06-22T00:22:25;95749.63;;;22.46;51.09
72395;BME280;60384;48.152;11.614;2023-06-22T00:25:29;95736.78;;;22.47;50.76
72395;BME280;60384;48.152;11.614;2023-06-22T00:28:30;95743.78;;;22.44;50.98
72395;BME280;60384;48.152;11.614;2023-06-22T00:31:32;95748.09;;;22.38;51.21
72395;BME280;60384;48.152;11.614;2023-06-22T00:34:35;95744.97;;;22.36;50.74
72395;BME280;60384;48.152;11.614;2023-06-22T00:37:37;95742.25;;;22.33;50.78
72395;BME280;60384;48.152;11.614;2023-06-22T00:40:40;95741.47;;;22.32;50.80
72395;BME280;60384;48.152;11.614;2023-06-22T00:43:42;95744.97;;;22.33;50.82
72395;BME280;60384;48.152;11.614;2023-06-22T00:46:44;95748.06;;;22.31;50.93
72395;BME280;60384;48.152;11.614;2023-06-22T00:49:49;95741.47;;;22.29;51.14
72395;BME280;60384;48.152;11.614;2023-06-22T00:52:52;95739.53;;;22.25;51.02
72395;BME280;60384;48.152;11.614;2023-06-22T00:55:54;95748.47;;;22.19;51.16
72395;BME280;60384;48.152;11.614;2023-06-22T00:58:56;95734.47;;;22.20;50.78
72395;BME280;60384;48.152;11.614;2023-06-22T01:01:58;95736.03;;;22.25;50.74
72395;BME280;60384;48.152;11.614;2023-06-22T01:05:01;95738.34;;;22.23;50.84
72395;BME280;60384;48.152;11.614;2023-06-22T01:08:06;95722.81;;;22.20;50.64
72395;BME280;60384;48.152;11.614;2023-06-22T01:11:17;95724.34;;;22.17;50.87
72395;BME280;60384;48.152;11.614;2023-06-22T01:14:20;95724.34;;;22.17;51.07
72395;BME280;60384;48.152;11.614;2023-06-22T01:17:24;95713.88;;;22.19;50.79
72395;BME280;60384;48.152;11.614;2023-06-22T01:20:29;95711.50;;;22.21;50.63
72395;BME280;60384;48.152;11.614;2023-06-22T01:23:33;95700.63;;;22.18;50.69
72395;BME280;60384;48.152;11.614;2023-06-22T01:26:38;95694.03;;;22.12;50.78
72395;BME280;60384;48.152;11.614;2023-06-22T01:29:44;95694.81;;;22.05;50.81
72395;BME280;60384;48.152;11.614;2023-06-22T01:32:47;95702.59;;;22.03;50.84
72395;BME280;60384;48.152;11.614;2023-06-22T01:35:49;95695.59;;;22.02;51.28
72395;BME280;60384;48.152;11.614;2023-06-22T01:38:52;95690.16;;;21.99;51.31
72395;BME280;60384;48.152;11.614;2023-06-22T01:41:54;95693.63;;;21.89;51.49
72395;BME280;60384;48.152;11.614;2023-06-22T01:44:57;95687.41;;;21.81;51.57
72395;BME280;60384;48.152;11.614;2023-06-22T01:47:59;95690.13;;;21.74;51.67
72395;BME280;60384;48.152;11.614;2023-06-22T01:51:02;95685.47;;;21.64;51.82
72395;BME280;60384;48.152;11.614;2023-06-22T01:54:05;95685.47;;;21.67;51.53
72395;BME280;60384;48.152;11.614;2023-06-22T01:57:07;95688.97;;;21.75;51.30
72395;BME280;60384;48.152;11.614;2023-06-22T02:00:11;95683.91;;;21.77;51.25
72395;BME280;60384;48.152;11.614;2023-06-22T02:03:19;95675.75;;;21.73;51.43
72395;BME280;60384;48.152;11.614;2023-06-22T02:06:21;95682.34;;;21.65;51.33
72395;BME280;60384;48.152;11.614;2023-06-22T02:09:25;95688.53;;;21.55;51.49
72395;BME280;60384;48.152;11.614;2023-06-22T02:12:30;95693.94;;;21.37;51.96
72395;BME280;60384;48.152;11.614;2023-06-22T02:15:35;95698.19;;;21.31;52.23
72395;BME280;60384;48.152;11.614;2023-06-22T02:18:37;95706.31;;;21.21;52.17
72395;BME280;60384;48.152;11.614;2023-06-22T02:21:41;95696.63;;;21.16;52.20
72395;BME280;60384;48.152;11.614;2023-06-22T02:24:42;95695.78;;;21.09;52.37
72395;BME280;60384;48.152;11.614;2023-06-22T02:27:44;95697.72;;;21.01;52.37
72395;BME280;60384;48.152;11.614;2023-06-22T02:30:47;95701.13;;;20.91;52.46
72395;BME280;60384;48.152;11.614;2023-06-22T02:33:48;95702.28;;;20.86;52.52
72395;BME280;60384;48.152;11.614;2023-06-22T02:36:53;95700.34;;;20.87;52.44
72395;BME280;60384;48.152;11.614;2023-06-22T02:39:55;95706.94;;;20.82;52.40
72395;BME280;60384;48.152;11.614;2023-06-22T02:42:57;95717.75;;;20.75;52.32
72395;BME280;60384;48.152;11.614;2023-06-22T02:46:03;95727.78;;;20.64;52.64
72395;BME280;60384;48.152;11.614;2023-06-22T02:49:05;95735.09;;;20.53;52.86
72395;BME280;60384;48.152;11.614;2023-06-22T02:52:06;95726.09;;;20.45;52.92
72395;BME280;60384;48.152;11.614;2023-06-22T02:55:09;95731.88;;;20.40;52.90
72395;BME280;60384;48.152;11.614;2023-06-22T02:58:10;95729.56;;;20.39;52.84
72395;BME280;60384;48.152;11.614;2023-06-22T03:01:14;95720.25;;;20.40;52.84
72395;BME280;60384;48.152;11.614;2023-06-22T03:04:20;95718.38;;;20.44;52.80
72395;BME280;60384;48.152;11.614;2023-06-22T03:07:21;95707.19;;;20.56;52.50
72395;BME280;60384;48.152;11.614;2023-06-22T03:10:25;95708.78;;;20.68;52.15
72395;BME280;60384;48.152;11.614;2023-06-22T03:13:27;95708.81;;;20.71;52.12
72395;BME280;60384;48.152;11.614;2023-06-22T03:16:30;95701.03;;;20.70;52.16
72395;BME280;60384;48.152;11.614;2023-06-22T03:19:33;95710.34;;;20.65;52.28
72395;BME280;60384;48.152;11.614;2023-06-22T03:22:35;95702.59;;;20.67;52.21
72395;BME280;60384;48.152;11.614;2023-06-22T03:25:37;95708.78;;;20.68;52.15
72395;BME280;60384;48.152;11.614;2023-06-22T03:28:39;95703.34;;;20.64;52.30
72395;BME280;60384;48.152;11.614;2023-06-22T03:31:43;95704.50;;;20.63;52.31
72395;BME280;60384;48.152;11.614;2023-06-22T03:34:45;95704.13;;;20.68;52.27
72395;BME280;60384;48.152;11.614;2023-06-22T03:37:48;95704.16;;;20.72;52.15
72395;BME280;60384;48.152;11.614;2023-06-22T03:40:49;95706.47;;;20.66;52.26
72395;BME280;60384;48.152;11.614;2023-06-22T03:43:51;95707.22;;;20.63;52.33
72395;BME280;60384;48.152;11.614;2023-06-22T03:46:54;95706.44;;;20.62;52.34
72395;BME280;60384;48.152;11.614;2023-06-22T03:49:56;95702.88;;;20.51;52.54
72395;BME280;60384;48.152;11.614;2023-06-22T03:52:57;95711.75;;;20.45;52.59
72395;BME280;60384;48.152;11.614;2023-06-22T03:55:59;95706.31;;;20.38;52.79
72395;BME280;60384;48.152;11.614;2023-06-22T03:59:01;95721.44;;;20.42;52.70
72395;BME280;60384;48.152;11.614;2023-06-22T04:02:04;95718.31;;;20.40;52.78
72395;BME280;60384;48.152;11.614;2023-06-22T04:05:05;95722.19;;;20.36;52.75
72395;BME280;60384;48.152;11.614;2023-06-22T04:08:07;95722.88;;;20.29;52.97
72395;BME280;60384;48.152;11.614;2023-06-22T04:11:09;95720.16;;;20.29;53.01
72395;BME280;60384;48.152;11.614;2023-06-22T04:14:10;95731.41;;;20.31;53.11
72395;BME280;60384;48.152;11.614;2023-06-22T04:17:13;95714.34;;;20.27;53.00
72395;BME280;60384;48.152;11.614;2023-06-22T04:20:15;95719.84;;;20.34;52.78
72395;BME280;60384;48.152;11.614;2023-06-22T04:23:16;95713.28;;;20.39;52.88
72395;BME280;60384;48.152;11.614;2023-06-22T04:26:18;95714.88;;;20.43;52.87
72395;BME280;60384;48.152;11.614;2023-06-22T04:29:21;95711.38;;;20.43;52.74
72395;BME280;60384;48.152;11.614;2023-06-22T04:32:31;95702.47;;;20.46;52.77
72395;BME280;60384;48.152;11.614;2023-06-22T04:35:33;95707.09;;;20.45;52.93
72395;BME280;60384;48.152;11.614;2023-06-22T04:38:34;95708.31;;;20.51;52.79
72395;BME280;60384;48.152;11.614;2023-06-22T04:41:36;95712.94;;;20.47;52.89
72395;BME280;60384;48.152;11.614;2023-06-22T04:44:47;95720.28;;;20.43;53.06
72395;BME280;60384;48.152;11.614;2023-06-22T04:47:50;95709.81;;;20.45;53.10
72395;BME280;60384;48.152;11.614;2023-06-22T04:50:53;95708.31;;;20.51;53.03
72395;BME280;60384;48.152;11.614;2023-06-22T04:53:55;95706.00;;;20.53;53.07
72395;BME280;60384;48.152;11.614;2023-06-22T04:57:01;95692.84;;;20.55;53.03
72395;BME280;60384;48.152;11.614;2023-06-22T05:00:03;95698.28;;;20.62;53.03
72395;BME280;60384;48.152;11.614;2023-06-22T05:03:15;95704.91;;;20.69;52.76
72395;BME280;60384;48.152;11.614;2023-06-22T05:06:18;95696.03;;;20.75;52.81
72395;BME280;60384;48.152;11.614;2023-06-22T05:09:20;95700.72;;;20.82;52.92
72395;BME280;60384;48.152;11.614;2023-06-22T05:12:22;95696.84;;;20.86;52.81
72395;BME280;60384;48.152;11.614;2023-06-22T05:15:24;95692.19;;;20.87;52.76
72395;BME280;60384;48.152;11.614;2023-06-22T05:18:31;95684.06;;;20.90;52.76
72395;BME280;60384;48.152;11.614;2023-06-22T05:21:33;95690.72;;;21.00;52.72
72395;BME280;60384;48.152;11.614;2023-06-22T05:24:35;95690.81;;;21.21;52.48
72395;BME280;60384;48.152;11.614;2023-06-22T05:27:36;95685.00;;;21.33;52.08
72395;BME280;60384;48.152;11.614;2023-06-22T05:30:40;95690.06;;;21.42;52.23
72395;BME280;60384;48.152;11.614;2023-06-22T05:33:43;95687.41;;;21.53;52.12
72395;BME280;60384;48.152;11.614;2023-06-22T05:36:45;95694.00;;;21.62;51.91
72395;BME280;60384;48.152;11.614;2023-06-22T05:39:47;95697.50;;;21.66;52.22
72395;BME280;60384;48.152;11.614;2023-06-22T05:42:48;95698.69;;;21.69;52.19
72395;BME280;60384;48.152;11.614;2023-06-22T05:45:50;95685.06;;;21.69;52.33
72395;BME280;60384;48.152;11.614;2023-06-22T05:48:53;95683.88;;;21.56;52.78
72395;BME280;60384;48.152;11.614;2023-06-22T05:51:54;95680.38;;;21.48;53.19
72395;BME280;60384;48.152;11.614;2023-06-22T05:54:56;95687.38;;;21.46;53.10
72395;BME280;60384;48.152;11.614;2023-06-22T05:57:58;95683.50;;;21.47;53.16
72395;BME280;60384;48.152;11.614;2023-06-22T06:00:59;95683.13;;;21.52;53.10
72395;BME280;60384;48.152;11.614;2023-06-22T06:04:03;95685.44;;;21.57;53.24
72395;BME280;60384;48.152;11.614;2023-06-22T06:07:05;95693.97;;;21.59;53.01
72395;BME280;60384;48.152;11.614;2023-06-22T06:10:07;95703.31;;;21.61;53.07
72395;BME280;60384;48.152;11.614;2023-06-22T06:13:09;95689.34;;;21.70;52.90
72395;BME280;60384;48.152;11.614;2023-06-22T06:16:10;95694.41;;;21.78;53.03
72395;BME280;60384;48.152;11.614;2023-06-22T06:19:13;95685.09;;;21.87;52.89
72395;BME280;60384;48.152;11.614;2023-06-22T06:22:15;95683.53;;;21.93;53.00
72395;BME280;60384;48.152;11.614;2023-06-22T06:25:16;95680.84;;;21.96;53.40
72395;BME280;60384;48.152;11.614;2023-06-22T06:28:20;95672.28;;;21.98;53.53
72395;BME280;60384;48.152;11.614;2023-06-22T06:31:21;95662.94;;;22.02;53.35
72395;BME280;60384;48.152;11.614;2023-06-22T06:34:24;95656.72;;;22.09;53.38
72395;BME280;60384;48.152;11.614;2023-06-22T06:40:28;95662.91;;;22.23;53.59
72395;BME280;60384;48.152;11.614;2023-06-22T06:43:29;95659.03;;;22.28;53.69
72395;BME280;60384;48.152;11.614;2023-06-22T06:46:31;95655.91;;;22.33;53.74
72395;BME280;60384;48.152;11.614;2023-06-22T06:49:34;95663.28;;;22.36;53.62
72395;BME280;60384;48.152;11.614;2023-06-22T06:52:35;95667.16;;;22.39;53.74
72395;BME280;60384;48.152;11.614;2023-06-22T06:55:37;95664.81;;;22.44;53.55
72395;BME280;60384;48.152;11.614;2023-06-22T07:01:41;95658.53;;;22.61;53.58
72395;BME280;60384;48.152;11.614;2023-06-22T07:04:46;95661.25;;;22.68;53.75
72395;BME280;60384;48.152;11.614;2023-06-22T07:07:47;95657.31;;;22.87;53.21
72395;BME280;60384;48.152;11.614;2023-06-22T07:10:49;95665.78;;;23.11;52.83
72395;BME280;60384;48.152;11.614;2023-06-22T07:13:50;95660.25;;;23.25;53.06
72395;BME280;60384;48.152;11.614;2023-06-22T07:16:52;95662.50;;;23.37;52.81
72395;BME280;60384;48.152;11.614;2023-06-22T07:19:55;95669.13;;;23.46;53.03
72395;BME280;60384;48.152;11.614;2023-06-22T07:22:57;95656.19;;;23.58;52.47
72395;BME280;60384;48.152;11.614;2023-06-22T07:25:59;95653.03;;;23.63;52.74
72395;BME280;60384;48.152;11.614;2023-06-22T07:29:02;95661.56;;;23.68;52.89
72395;BME280;60384;48.152;11.614;2023-06-22T07:32:04;95647.06;;;23.78;52.55
72395;BME280;60384;48.152;11.614;2023-06-22T07:35:08;95646.19;;;23.88;52.49
72395;BME280;60384;48.152;11.614;2023-06-22T07:38:09;95641.06;;;23.98;52.75
72395;BME280;60384;48.152;11.614;2023-06-22T07:41:11;95638.63;;;24.07;52.46
72395;BME280;60384;48.152;11.614;2023-06-22T07:44:13;95629.19;;;24.15;52.50
72395;BME280;60384;48.152;11.614;2023-06-22T07:47:14;95622.91;;;24.21;52.22
72395;BME280;60384;48.152;11.614;2023-06-22T07:50:19;95622.06;;;24.28;52.68
72395;BME280;60384;48.152;11.614;2023-06-22T07:53:21;95613.75;;;24.39;52.36
72395;BME280;60384;48.152;11.614;2023-06-22T07:56:23;95619.06;;;24.53;52.12
72395;BME280;60384;48.152;11.614;2023-06-22T07:59:24;95625.56;;;24.66;52.40
72395;BME280;60384;48.152;11.614;2023-06-22T08:02:26;95629.28;;;24.79;52.04
72395;BME280;60384;48.152;11.614;2023-06-22T08:05:29;95629.97;;;24.90;52.21
72395;BME280;60384;48.152;11.614;2023-06-22T08:08:31;95630.25;;;24.99;52.09
72395;BME280;60384;48.152;11.614;2023-06-22T08:11:32;95636.03;;;25.05;52.32
72395;BME280;60384;48.152;11.614;2023-06-22T08:14:35;95628.09;;;25.14;52.03
72395;BME280;60384;48.152;11.614;2023-06-22T08:17:37;95629.56;;;25.22;52.24
72395;BME280;60384;48.152;11.614;2023-06-22T08:20:40;95625.00;;;25.39;51.86
72395;BME280;60384;48.152;11.614;2023-06-22T08:23:41;95623.53;;;25.61;51.71
72395;BME280;60384;48.152;11.614;2023-06-22T08:26:43;95614.09;;;25.89;51.22
72395;BME280;60384;48.152;11.614;2023-06-22T08:29:45;95613.59;;;26.17;51.23
72395;BME280;60384;48.152;11.614;2023-06-22T08:32:46;95613.94;;;26.43;50.95
72395;BME280;60384;48.152;11.614;2023-06-22T08:35:49;95614.72;;;26.63;50.44
72395;BME280;60384;48.152;11.614;2023-06-22T08:38:51;95614.78;;;26.79;50.29
72395;BME280;60384;48.152;11.614;2023-06-22T08:41:54;95610.44;;;26.82;50.65
72395;BME280;60384;48.152;11.614;2023-06-22T08:44:55;95610.84;;;26.80;51.09
72395;BME280;60384;48.152;11.614;2023-06-22T08:47:57;95614.78;;;26.79;51.48
72395;BME280;60384;48.152;11.614;2023-06-22T08:51:04;95617.88;;;26.81;51.12
72395;BME280;60384;48.152;11.614;2023-06-22T08:54:06;95609.94;;;26.87;51.35
72395;BME280;60384;48.152;11.614;2023-06-22T08:57:07;95608.31;;;26.89;51.47
72395;BME280;60384;48.152;11.614;2023-06-22T09:00:09;95613.25;;;26.98;51.91
72395;BME280;60384;48.152;11.614;2023-06-22T09:03:16;95604.88;;;27.05;51.23
72395;BME280;60384;48.152;11.614;2023-06-22T09:06:19;95601.41;;;27.21;51.14
72395;BME280;60384;48.152;11.614;2023-06-22T09:09:21;95601.00;;;27.38;51.47
72395;BME280;60384;48.152;11.614;2023-06-22T09:12:23;95602.22;;;27.53;51.16
72395;BME280;60384;48.152;11.614;2023-06-22T09:15:27;95598.44;;;27.64;51.05
72395;BME280;60384;48.152;11.614;2023-06-22T09:18:28;95598.66;;;27.73;51.06
72395;BME280;60384;48.152;11.614;2023-06-22T09:21:32;95598.91;;;27.78;51.12
72395;BME280;60384;48.152;11.614;2023-06-22T09:24:33;95599.16;;;27.84;50.65
72395;BME280;60384;48.152;11.614;2023-06-22T09:27:35;95593.47;;;27.91;51.27
72395;BME280;60384;48.152;11.614;2023-06-22T09:30:36;95595.75;;;28.09;50.56
72395;BME280;60384;48.152;11.614;2023-06-22T09:33:39;95587.00;;;28.30;50.59
72395;BME280;60384;48.152;11.614;2023-06-22T09:36:42;95590.56;;;28.43;50.67
72395;BME280;60384;48.152;11.614;2023-06-22T09:39:44;95585.88;;;28.56;50.43
72395;BME280;60384;48.152;11.614;2023-06-22T09:42:46;95582.16;;;28.63;50.21
72395;BME280;60384;48.152;11.614;2023-06-22T09:45:47;95579.22;;;28.70;50.45
72395;BME280;60384;48.152;11.614;2023-06-22T09:48:49;95574.22;;;28.81;50.15
72395;BME280;60384;48.152;11.614;2023-06-22T09:51:52;95575.66;;;28.98;50.09
72395;BME280;60384;48.152;11.614;2023-06-22T09:54:53;95573.59;;;29.15;49.84
72395;BME280;60384;48.152;11.614;2023-06-22T09:57:55;95571.59;;;29.28;49.97
72395;BME280;60384;48.152;11.614;2023-06-22T10:00:57;95569.56;;;29.32;50.03
72395;BME280;60384;48.152;11.614;2023-06-22T10:03:58;95561.69;;;29.31;49.89
72395;BME280;60384;48.152;11.614;2023-06-22T10:07:01;95563.16;;;29.35;50.14
72395;BME280;60384;48.152;11.614;2023-06-22T10:10:04;95557.31;;;29.46;50.41
72395;BME280;60384;48.152;11.614;2023-06-22T10:13:07;95552.00;;;29.64;50.33
72395;BME280;60384;48.152;11.614;2023-06-22T10:16:09;95547.88;;;29.81;49.60
72395;BME280;60384;48.152;11.614;2023-06-22T10:19:11;95549.44;;;29.95;50.00
72395;BME280;60384;48.152;11.614;2023-06-22T10:22:14;95556.34;;;30.00;50.10
72395;BME280;60384;48.152;11.614;2023-06-22T10:25:16;95552.66;;;30.15;49.88
72395;BME280;60384;48.152;11.614;2023-06-22T10:28:17;95550.50;;;30.32;49.28
72395;BME280;60384;48.152;11.614;2023-06-22T10:31:19;95553.53;;;30.47;49.20
72395;BME280;60384;48.152;11.614;2023-06-22T10:34:20;95542.91;;;30.58;49.09
72395;BME280;60384;48.152;11.614;2023-06-22T10:37:23;95545.28;;;30.68;49.02
72395;BME280;60384;48.152;11.614;2023-06-22T10:40:25;95538.13;;;30.80;49.48
72395;BME280;60384;48.152;11.614;2023-06-22T10:43:27;95537.28;;;30.92;49.34
72395;BME280;60384;48.152;11.614;2023-06-22T10:46:28;95533.56;;;31.08;49.00
72395;BME280;60384;48.152;11.614;2023-06-22T10:49:30;95530.53;;;31.24;48.65
72395;BME280;60384;48.152;11.614;2023-06-22T10:52:33;95527.09;;;31.42;48.59
72395;BME280;60384;48.152;11.614;2023-06-22T10:55:34;95525.00;;;31.64;48.75
72395;BME280;60384;48.152;11.614;2023-06-22T10:58:36;95521.50;;;31.91;48.05
72395;BME280;60384;48.152;11.614;2023-06-22T11:01:38;95508.66;;;32.15;48.36
72395;BME280;60384;48.152;11.614;2023-06-22T11:04:39;95509.22;;;32.56;47.50
72395;BME280;60384;48.152;11.614;2023-06-22T11:07:42;95507.50;;;32.86;47.21
72395;BME280;60384;48.152;11.614;2023-06-22T11:10:44;95512.72;;;32.84;47.87
72395;BME280;60384;48.152;11.614;2023-06-22T11:13:46;95512.56;;;32.87;47.67
72395;BME280;60384;48.152;11.614;2023-06-22T11:16:48;95509.19;;;32.92;47.86
72395;BME280;60384;48.152;11.614;2023-06-22T11:19:50;95510.19;;;33.04;47.81
72395;BME280;60384;48.152;11.614;2023-06-22T11:22:53;95511.50;;;33.27;47.12
72395;BME280;60384;48.152;11.614;2023-06-22T11:25:55;95506.09;;;33.32;47.11
72395;BME280;60384;48.152;11.614;2023-06-22T11:28:57;95505.97;;;33.27;47.40
72395;BME280;60384;48.152;11.614;2023-06-22T11:31:58;95508.31;;;33.10;47.98
72395;BME280;60384;48.152;11.614;2023-06-22T11:35:00;95508.25;;;33.37;47.41
72395;BME280;60384;48.152;11.614;2023-06-22T11:38:03;95503.84;;;33.78;46.68
72395;BME280;60384;48.152;11.614;2023-06-22T11:41:05;95494.75;;;34.01;46.97
72395;BME280;60384;48.152;11.614;2023-06-22T11:44:06;95486.38;;;34.11;46.74
72395;BME280;60384;48.152;11.614;2023-06-22T11:47:08;95479.44;;;34.30;46.22
72395;BME280;60384;48.152;11.614;2023-06-22T11:50:10;95480.13;;;34.54;46.03
72395;BME280;60384;48.152;11.614;2023-06-22T11:53:13;95475.84;;;34.68;46.07
72395;BME280;60384;48.152;11.614;2023-06-22T11:56:16;95471.13;;;34.89;45.42
72395;BME280;60384;48.152;11.614;2023-06-22T11:59:18;95478.88;;;34.99;46.00
72395;BME280;60384;48.152;11.614;2023-06-22T12:02:22;95478.53;;;35.41;45.01
72395;BME280;60384;48.152;11.614;2023-06-22T12:05:23;95465.59;;;35.93;44.79
72395;BME280;60384;48.152;11.614;2023-06-22T12:08:26;95464.56;;;36.37;44.07
72395;BME280;60384;48.152;11.614;2023-06-22T12:11:28;95460.19;;;36.82;43.97
72395;BME280;60384;48.152;11.614;2023-06-22T12:14:30;95454.72;;;36.99;43.88
72395;BME280;60384;48.152;11.614;2023-06-22T12:17:31;95449.94;;;37.79;42.67
72395;BME280;60384;48.152;11.614;2023-06-22T12:20:33;95450.50;;;40.00;39.42
72395;BME280;60384;48.152;11.614;2023-06-22T12:23:36;95442.56;;;41.46;37.17
72395;BME280;60384;48.152;11.614;2023-06-22T12:26:37;95434.53;;;42.41;36.49
72395;BME280;60384;48.152;11.614;2023-06-22T12:29:39;95416.34;;;42.93;36.53
72395;BME280;60384;48.152;11.614;2023-06-22T12:32:40;95405.38;;;43.48;36.88
72395;BME280;60384;48.152;11.614;2023-06-22T12:35:42;95407.59;;;43.55;37.25
72395;BME280;60384;48.152;11.614;2023-06-22T12:38:46;95405.50;;;43.82;37.48
72395;BME280;60384;48.152;11.614;2023-06-22T12:41:48;95404.78;;;42.97;39.39
72395;BME280;60384;48.152;11.614;2023-06-22T12:44:49;95393.59;;;42.78;40.00
72395;BME280;60384;48.152;11.614;2023-06-22T12:47:51;95401.56;;;40.89;43.17
72395;BME280;60384;48.152;11.614;2023-06-22T12:50:53;95403.47;;;39.87;44.43
72395;BME280;60384;48.152;11.614;2023-06-22T12:53:56;95392.66;;;39.56;44.52
72395;BME280;60384;48.152;11.614;2023-06-22T12:56:57;95398.25;;;40.14;43.68
72395;BME280;60384;48.152;11.614;2023-06-22T12:59:59;95392.16;;;40.10;43.48
72395;BME280;60384;48.152;11.614;2023-06-22T13:03:01;95387.06;;;39.56;44.09
72395;BME280;60384;48.152;11.614;2023-06-22T13:06:02;95390.44;;;39.38;44.31
72395;BME280;60384;48.152;11.614;2023-06-22T13:09:06;95398.50;;;39.58;43.71
72395;BME280;60384;48.152;11.614;2023-06-22T13:12:08;95390.06;;;40.27;42.90
72395;BME280;60384;48.152;11.614;2023-06-22T13:15:10;95397.72;;;40.21;43.06
72395;BME280;60384;48.152;11.614;2023-06-22T13:18:11;95396.97;;;41.15;41.37
72395;BME280;60384;48.152;11.614;2023-06-22T13:21:13;95394.16;;;41.64;41.39
72395;BME280;60384;48.152;11.614;2023-06-22T13:24:16;95399.16;;;41.95;40.73
72395;BME280;60384;48.152;11.614;2023-06-22T13:27:18;95392.31;;;41.91;41.47
72395;BME280;60384;48.152;11.614;2023-06-22T13:30:19;95384.66;;;42.61;40.45
72395;BME280;60384;48.152;11.614;2023-06-22T13:33:21;95384.81;;;43.13;39.65
72395;BME280;60384;48.152;11.614;2023-06-22T13:36:23;95381.53;;;42.64;40.85
72395;BME280;60384;48.152;11.614;2023-06-22T13:39:26;95387.22;;;42.77;40.60
72395;BME280;60384;48.152;11.614;2023-06-22T13:42:27;95375.38;;;42.15;41.79
72395;BME280;60384;48.152;11.614;2023-06-22T13:45:29;95372.47;;;41.83;42.29
72395;BME280;60384;48.152;11.614;2023-06-22T13:48:30;95380.38;;;42.22;41.44
72395;BME280;60384;48.152;11.614;2023-06-22T13:51:32;95385.41;;;42.61;40.52
72395;BME280;60384;48.152;11.614;2023-06-22T13:54:35;95375.47;;;42.92;40.48
72395;BME280;60384;48.152;11.614;2023-06-22T13:57:37;95381.31;;;42.62;40.66
72395;BME280;60384;48.152;11.614;2023-06-22T14:00:38;95373.63;;;42.63;40.98
72395;BME280;60384;48.152;11.614;2023-06-22T14:03:40;95368.94;;;42.71;40.79
72395;BME280;60384;48.152;11.614;2023-06-22T14:06:41;95369.09;;;42.60;40.96
72395;BME280;60384;48.152;11.614;2023-06-22T14:09:44;95361.03;;;42.37;40.78
72395;BME280;60384;48.152;11.614;2023-06-22T14:12:46;95362.13;;;41.97;41.61
72395;BME280;60384;48.152;11.614;2023-06-22T14:15:48;95354.78;;;42.26;41.05
72395;BME280;60384;48.152;11.614;2023-06-22T14:18:52;95350.31;;;42.36;40.59
72395;BME280;60384;48.152;11.614;2023-06-22T14:21:53;95352.75;;;42.26;41.23
72395;BME280;60384;48.152;11.614;2023-06-22T14:24:56;95345.31;;;42.10;41.48
72395;BME280;60384;48.152;11.614;2023-06-22T14:27:58;95343.81;;;41.90;41.44
72395;BME280;60384;48.152;11.614;2023-06-22T14:31:00;95342.31;;;41.89;41.80
72395;BME280;60384;48.152;11.614;2023-06-22T14:34:02;95336.28;;;41.98;41.68
72395;BME280;60384;48.152;11.614;2023-06-22T14:37:06;95329.78;;;41.90;41.46
72395;BME280;60384;48.152;11.614;2023-06-22T14:40:09;95327.03;;;41.66;42.10
72395;BME280;60384;48.152;11.614;2023-06-22T14:43:11;95328.53;;;41.48;41.99
72395;BME280;60384;48.152;11.614;2023-06-22T14:46:13;95333.22;;;41.40;42.38
72395;BME280;60384;48.152;11.614;2023-06-22T14:49:15;95323.41;;;41.28;42.16
72395;BME280;60384;48.152;11.614;2023-06-22T14:52:17;95328.75;;;41.02;42.74
72395;BME280;60384;48.152;11.614;2023-06-22T14:55:20;95320.88;;;40.76;42.65
72395;BME280;60384;48.152;11.614;2023-06-22T14:58:21;95315.13;;;40.63;42.43
72395;BME280;60384;48.152;11.614;2023-06-22T15:01:23;95304.19;;;40.65;42.54
72395;BME280;60384;48.152;11.614;2023-06-22T15:04:24;95304.19;;;40.65;42.33
72395;BME280;60384;48.152;11.614;2023-06-22T15:07:31;95304.31;;;40.78;42.53
72395;BME280;60384;48.152;11.614;2023-06-22T15:10:34;95300.75;;;40.77;42.35
72395;BME280;60384;48.152;11.614;2023-06-22T15:13:38;95306.81;;;40.81;42.48
72395;BME280;60384;48.152;11.614;2023-06-22T15:16:40;95303.31;;;40.75;42.21
72395;BME280;60384;48.152;11.614;2023-06-22T15:19:42;95297.59;;;40.86;42.29
72395;BME280;60384;48.152;11.614;2023-06-22T15:22:43;95291.16;;;40.92;42.33
72395;BME280;60384;48.152;11.614;2023-06-22T15:25:46;95290.75;;;40.82;42.53
72395;BME280;60384;48.152;11.614;2023-06-22T15:28:48;95284.00;;;40.42;42.80
72395;BME280;60384;48.152;11.614;2023-06-22T15:31:50;95279.25;;;39.96;43.31
72395;BME280;60384;48.152;11.614;2023-06-22T15:34:52;95264.84;;;39.40;43.94
72395;BME280;60384;48.152;11.614;2023-06-22T15:37:54;95258.28;;;39.20;44.26
72395;BME280;60384;48.152;11.614;2023-06-22T15:40:57;95257.72;;;39.33;43.71
72395;BME280;60384;48.152;11.614;2023-06-22T15:43:58;95250.31;;;39.47;43.45
72395;BME280;60384;48.152;11.614;2023-06-22T15:47:00;95243.50;;;39.78;42.97
72395;BME280;60384;48.152;11.614;2023-06-22T15:50:01;95236.50;;;39.95;42.57
72395;BME280;60384;48.152;11.614;2023-06-22T15:53:03;95229.47;;;39.83;42.80
72395;BME280;60384;48.152;11.614;2023-06-22T15:56:06;95230.88;;;39.60;43.08
72395;BME280;60384;48.152;11.614;2023-06-22T15:59:09;95236.66;;;39.26;43.67